Time;durP1;ratioP1;P1;durP2;ratioP2;P2;SDS_P1;SDS_P2;PMS_P1;PMS_P2;Temp;Humidity;BMP_temperature;BMP_pressure;BME280_temperature;BME280_humidity;BME280_pressure;Samples;Min_cycle;Max_cycle;Signal;HPM_P1;HPM_P2
2021/07/07 00:00:56;;;;;;;8.83;4.37;;;17.50;99.90;;;;;;5077689;28;20387;-55
2021/07/07 00:03:21;;;;;;;9.23;4.30;;;17.70;99.90;;;;;;5076946;28;20391;-55
2021/07/07 00:05:47;;;;;;;9.55;5.45;;;17.70;99.90;;;;;;5094042;28;20804;-55
2021/07/07 00:08:13;;;;;;;7.77;4.20;;;17.70;99.90;;;;;;5080927;28;20429;-55
2021/07/07 00:10:39;;;;;;;7.70;4.40;;;17.70;99.90;;;;;;5084405;28;20386;-55
2021/07/07 00:13:04;;;;;;;9.30;4.57;;;17.70;99.90;;;;;;5091936;28;20375;-55
2021/07/07 00:15:32;;;;;;;8.20;4.70;;;17.70;99.90;;;;;;5076725;28;20405;-55
2021/07/07 00:18:03;;;;;;;9.30;5.03;;;17.70;99.90;;;;;;5078225;28;20377;-55
2021/07/07 00:20:44;;;;;;;10.10;4.97;;;17.70;99.90;;;;;;5081589;28;20373;-59
2021/07/07 00:23:11;;;;;;;7.85;4.63;;;17.60;99.90;;;;;;5094524;28;20818;-55
2021/07/07 00:25:37;;;;;;;8.10;4.72;;;17.50;99.90;;;;;;5096242;28;20516;-55
2021/07/07 00:28:04;;;;;;;10.60;4.70;;;17.60;99.90;;;;;;5104084;28;20453;-56
2021/07/07 00:30:30;;;;;;;10.00;4.80;;;17.60;99.90;;;;;;5093817;28;20518;-56
2021/07/07 00:32:56;;;;;;;11.55;5.10;;;17.80;99.90;;;;;;5106149;28;20427;-56
2021/07/07 00:35:22;;;;;;;8.95;4.72;;;17.70;99.90;;;;;;5109989;28;20388;-56
2021/07/07 00:37:48;;;;;;;11.48;5.30;;;17.80;99.90;;;;;;5108844;28;20380;-56
2021/07/07 00:40:14;;;;;;;10.00;4.73;;;17.80;99.90;;;;;;5108412;28;20908;-56
2021/07/07 00:42:40;;;;;;;7.78;4.45;;;17.90;99.90;;;;;;5109310;28;20404;-56
2021/07/07 00:45:07;;;;;;;11.30;5.47;;;17.90;99.90;;;;;;5109885;28;20365;-56
2021/07/07 00:47:32;;;;;;;7.40;4.40;;;16.20;99.90;;;;;;5108983;28;20873;-56
2021/07/07 00:49:58;;;;;;;8.10;4.57;;;18.00;99.90;;;;;;5108879;28;20455;-56
2021/07/07 00:52:24;;;;;;;9.80;4.50;;;17.90;99.90;;;;;;5109538;28;20491;-56
2021/07/07 00:54:50;;;;;;;10.35;4.65;;;17.80;99.90;;;;;;5108959;28;20376;-56
2021/07/07 00:57:17;;;;;;;8.13;4.50;;;17.60;99.90;;;;;;5109833;28;20430;-56
2021/07/07 00:59:45;;;;;;;10.30;5.70;;;17.40;99.90;;;;;;5107552;28;20388;-56
2021/07/07 01:02:11;;;;;;;8.20;4.57;;;17.30;99.90;;;;;;5109665;28;20380;-55
2021/07/07 01:04:37;;;;;;;8.07;4.75;;;17.30;99.90;;;;;;5109641;28;20372;-56
2021/07/07 01:07:03;;;;;;;10.90;4.93;;;17.50;99.90;;;;;;5108992;28;20412;-56
2021/07/07 01:09:29;;;;;;;10.93;4.90;;;17.60;99.90;;;;;;5108968;28;20920;-56
2021/07/07 01:11:55;;;;;;;10.05;4.53;;;17.70;99.90;;;;;;5107533;28;20495;-56
2021/07/07 01:14:21;;;;;;;8.57;4.53;;;17.80;99.90;;;;;;5108370;28;20399;-56
2021/07/07 01:16:46;;;;;;;8.30;4.53;;;17.80;99.90;;;;;;5108343;28;20868;-55
2021/07/07 01:19:13;;;;;;;8.90;4.80;;;17.80;99.90;;;;;;5109602;28;20398;-56
2021/07/07 01:21:52;;;;;;;13.50;5.43;;;17.90;99.90;;;;;;5108995;28;20388;-56
2021/07/07 01:24:19;;;;;;;10.13;4.68;;;17.90;99.90;;;;;;5109536;28;20381;-56
2021/07/07 01:26:46;;;;;;;9.68;4.68;;;17.90;99.90;;;;;;5108201;28;20729;-56
2021/07/07 01:29:14;;;;;;;10.50;4.40;;;18.00;99.90;;;;;;5113474;28;20376;-56
2021/07/07 01:31:41;;;;;;;9.90;4.70;;;17.90;99.90;;;;;;5113353;28;20376;-55
2021/07/07 01:34:07;;;;;;;8.70;4.43;;;18.00;99.90;;;;;;5112157;28;20394;-56
2021/07/07 01:36:36;;;;;;;8.75;4.28;;;18.00;99.90;;;;;;5113577;28;20737;-56
2021/07/07 01:39:04;;;;;;;9.70;4.20;;;17.80;99.90;;;;;;5112568;28;20395;-56
2021/07/07 01:41:30;;;;;;;8.35;4.60;;;17.70;99.90;;;;;;5113017;28;20388;-56
2021/07/07 01:43:55;;;;;;;9.27;4.82;;;17.80;99.90;;;;;;5112300;28;20376;-56
2021/07/07 01:46:21;;;;;;;10.82;4.80;;;17.80;99.90;;;;;;5113152;28;20836;-56
2021/07/07 01:48:47;;;;;;;9.20;4.40;;;17.70;99.90;;;;;;5112275;28;20892;-56
2021/07/07 01:51:12;;;;;;;9.50;4.27;;;17.80;99.90;;;;;;5113119;28;20865;-56
2021/07/07 01:53:38;;;;;;;8.70;4.80;;;17.80;99.90;;;;;;5112927;28;20849;-55
2021/07/07 01:56:04;;;;;;;8.20;4.32;;;17.80;99.90;;;;;;5112249;28;20459;-56
2021/07/07 01:58:30;;;;;;;8.77;4.57;;;17.80;99.90;;;;;;5112803;28;20464;-56
2021/07/07 02:00:56;;;;;;;9.38;5.25;;;17.80;99.90;;;;;;5112393;28;20388;-56
2021/07/07 02:03:22;;;;;;;9.15;5.95;;;17.70;99.90;;;;;;5112601;28;20495;-56
2021/07/07 02:05:47;;;;;;;10.57;5.77;;;17.70;99.90;;;;;;5111733;28;20485;-55
2021/07/07 02:08:13;;;;;;;8.98;4.80;;;17.70;99.90;;;;;;5112534;28;20441;-56
2021/07/07 02:10:40;;;;;;;8.85;5.10;;;17.80;99.90;;;;;;5111642;28;20764;-56
2021/07/07 02:13:08;;;;;;;9.65;5.88;;;17.90;99.90;;;;;;5112310;28;20451;-56
2021/07/07 02:15:35;;;;;;;10.73;5.38;;;18.00;99.90;;;;;;5112489;28;20465;-55
2021/07/07 02:18:02;;;;;;;8.60;5.30;;;18.00;99.90;;;;;;5112060;28;20442;-56
2021/07/07 02:20:29;;;;;;;10.07;5.63;;;18.00;99.90;;;;;;5112381;28;20481;-56
2021/07/07 02:22:55;;;;;;;11.30;6.13;;;18.00;99.90;;;;;;5111915;28;20360;-56
2021/07/07 02:25:30;;;;;;;11.18;6.43;;;18.00;99.90;;;;;;5112213;28;20783;-56
2021/07/07 02:27:57;;;;;;;14.70;6.63;;;17.90;99.90;;;;;;5111929;28;20372;-55
2021/07/07 02:30:25;;;;;;;11.32;6.70;;;17.90;99.90;;;;;;5112798;28;20399;-55
2021/07/07 02:32:52;;;;;;;14.13;6.25;;;17.90;99.90;;;;;;5111385;28;21261;-55
2021/07/07 02:35:21;;;;;;;13.02;7.20;;;17.90;99.90;;;;;;5111744;28;20388;-56
2021/07/07 02:37:49;;;;;;;12.00;7.30;;;17.90;99.90;;;;;;5110809;28;20421;-56
2021/07/07 02:40:16;;;;;;;13.85;7.70;;;17.90;99.90;;;;;;5111629;28;20768;-56
2021/07/07 02:42:42;;;;;;;15.50;7.40;;;17.90;99.90;;;;;;5109819;28;20809;-56
2021/07/07 02:45:10;;;;;;;12.40;7.30;;;17.90;99.90;;;;;;5112062;28;20369;-55
2021/07/07 02:47:36;;;;;;;11.60;6.78;;;17.90;99.90;;;;;;5111516;28;20751;-56
2021/07/07 02:50:03;;;;;;;12.47;7.60;;;18.00;99.90;;;;;;5111164;28;20406;-56
2021/07/07 02:52:29;;;;;;;12.45;7.40;;;18.00;99.90;;;;;;5111798;28;20372;-56
2021/07/07 02:54:54;;;;;;;11.25;7.15;;;18.00;99.90;;;;;;5111122;28;20372;-56
2021/07/07 02:57:20;;;;;;;14.17;7.20;;;17.90;99.90;;;;;;5111887;28;20388;-56
2021/07/07 02:59:46;;;;;;;14.80;7.90;;;17.90;99.90;;;;;;5111339;28;20730;-56
2021/07/07 03:02:11;;;;;;;11.77;7.70;;;17.40;99.90;;;;;;5112207;28;20415;-56
2021/07/07 03:04:37;;;;;;;12.00;7.68;;;17.80;99.90;;;;;;5111834;28;20456;-56
2021/07/07 03:07:04;;;;;;;11.83;7.43;;;17.90;99.90;;;;;;5111078;28;20889;-56
2021/07/07 03:09:30;;;;;;;14.73;7.60;;;17.80;99.90;;;;;;5111335;28;20880;-56
2021/07/07 03:11:56;;;;;;;11.88;7.40;;;17.70;99.90;;;;;;5109571;28;20408;-56
2021/07/07 03:14:22;;;;;;;13.88;7.47;;;17.70;99.90;;;;;;5111798;28;20471;-56
2021/07/07 03:16:47;;;;;;;11.57;7.00;;;17.70;99.90;;;;;;5110820;28;20456;-56
2021/07/07 03:19:13;;;;;;;11.25;6.75;;;17.70;99.90;;;;;;5111290;28;20879;-56
2021/07/07 03:21:39;;;;;;;12.65;6.75;;;17.70;99.90;;;;;;5111323;28;20433;-56
2021/07/07 03:24:05;;;;;;;12.73;7.00;;;17.60;99.90;;;;;;5110845;28;20821;-56
2021/07/07 03:26:31;;;;;;;12.70;7.07;;;17.70;99.90;;;;;;5111171;28;20431;-59
2021/07/07 03:28:57;;;;;;;13.63;7.72;;;17.70;99.90;;;;;;5110630;28;20369;-56
2021/07/07 03:31:23;;;;;;;14.87;7.87;;;17.60;99.90;;;;;;5111222;28;20408;-56
2021/07/07 03:33:49;;;;;;;12.40;7.10;;;17.60;99.90;;;;;;5110573;28;20369;-56
2021/07/07 03:36:14;;;;;;;14.87;8.20;;;17.60;99.90;;;;;;5111354;28;20889;-56
2021/07/07 03:38:40;;;;;;;15.15;7.90;;;17.50;99.90;;;;;;5110619;28;20838;-56
2021/07/07 03:41:06;;;;;;;14.67;7.77;;;17.50;99.90;;;;;;5110727;28;20803;-56
2021/07/07 03:43:33;;;;;;;12.43;7.60;;;17.50;99.90;;;;;;5111374;28;20372;-57
2021/07/07 03:46:00;;;;;;;12.55;7.78;;;17.60;99.90;;;;;;5110667;28;20438;-56
2021/07/07 03:48:25;;;;;;;14.20;7.63;;;17.50;99.90;;;;;;5109173;28;20392;-56
2021/07/07 03:50:51;;;;;;;12.70;7.45;;;17.60;99.90;;;;;;5109128;28;20372;-56
2021/07/07 03:53:17;;;;;;;13.60;7.97;;;17.70;99.90;;;;;;5111095;28;20784;-56
2021/07/07 03:55:42;;;;;;;11.85;7.72;;;17.80;99.90;;;;;;5110284;28;20427;-56
2021/07/07 03:58:08;;;;;;;11.50;7.03;;;17.70;99.90;;;;;;5084063;28;20881;-56
2021/07/07 04:00:34;;;;;;;10.20;5.50;;;17.70;99.90;;;;;;5076042;28;20399;-56
2021/07/07 04:03:00;;;;;;;12.65;5.93;;;17.60;99.90;;;;;;5088302;28;20414;-56
2021/07/07 04:05:27;;;;;;;11.57;5.30;;;17.50;99.90;;;;;;5072690;28;20419;-56
2021/07/07 04:07:52;;;;;;;9.70;4.70;;;17.50;99.90;;;;;;5069227;28;20399;-56
2021/07/07 04:10:19;;;;;;;10.40;5.90;;;17.40;99.90;;;;;;5069607;28;20391;-56
2021/07/07 04:12:45;;;;;;;9.70;5.00;;;17.50;99.90;;;;;;5068974;28;20379;-56
2021/07/07 04:15:13;;;;;;;11.63;5.63;;;17.50;99.90;;;;;;5068598;28;20395;-56
2021/07/07 04:17:39;;;;;;;7.95;4.57;;;17.50;99.90;;;;;;5069864;28;20383;-56
2021/07/07 04:20:07;;;;;;;9.97;4.60;;;17.50;99.90;;;;;;5069248;28;20382;-56
2021/07/07 04:22:34;;;;;;;11.15;5.18;;;17.60;99.90;;;;;;5078245;28;20899;-56
2021/07/07 04:24:59;;;;;;;9.57;4.90;;;17.70;99.90;;;;;;5087096;28;20374;-56
2021/07/07 04:27:25;;;;;;;8.93;4.40;;;17.70;99.90;;;;;;5069372;28;20410;-56
2021/07/07 04:29:51;;;;;;;8.27;4.30;;;17.60;99.90;;;;;;5072257;28;20392;-56
2021/07/07 04:32:16;;;;;;;7.60;4.40;;;17.70;99.90;;;;;;5075202;28;20381;-56
2021/07/07 04:34:43;;;;;;;6.43;3.95;;;17.70;99.90;;;;;;5078359;28;20379;-56
2021/07/07 04:37:09;;;;;;;8.83;3.67;;;17.80;99.90;;;;;;5079521;28;20410;-56
2021/07/07 04:39:35;;;;;;;7.07;3.50;;;17.80;99.90;;;;;;5080589;28;20397;-56
2021/07/07 04:42:00;;;;;;;7.25;3.90;;;17.90;99.90;;;;;;5069145;28;21248;-56
2021/07/07 04:44:26;;;;;;;6.63;3.90;;;17.80;99.90;;;;;;5069384;28;20880;-56
2021/07/07 04:46:52;;;;;;;7.47;3.70;;;17.60;99.90;;;;;;5080833;28;20875;-56
2021/07/07 04:49:17;;;;;;;7.10;3.70;;;17.70;99.90;;;;;;5089308;28;20382;-56
2021/07/07 04:51:43;;;;;;;10.53;4.07;;;17.80;99.90;;;;;;5089045;28;20784;-56
2021/07/07 04:54:09;;;;;;;9.10;4.30;;;17.80;99.90;;;;;;5089195;28;20378;-56
2021/07/07 04:56:34;;;;;;;9.48;5.15;;;17.90;99.90;;;;;;5089777;28;20390;-56
2021/07/07 04:59:00;;;;;;;11.40;5.18;;;17.90;99.90;;;;;;5088741;28;20416;-56
2021/07/07 05:01:25;;;;;;;9.40;5.23;;;17.90;99.90;;;;;;5089173;28;20408;-56
2021/07/07 05:03:51;;;;;;;9.37;5.97;;;17.90;99.90;;;;;;5088807;28;20382;-56
2021/07/07 05:06:17;;;;;;;10.68;6.20;;;18.00;99.90;;;;;;5089376;28;20429;-56
2021/07/07 05:08:42;;;;;;;10.48;5.80;;;18.20;99.90;;;;;;5089454;28;20374;-55
2021/07/07 05:11:09;;;;;;;12.10;6.10;;;18.20;99.90;;;;;;5088950;28;20431;-55
2021/07/07 05:13:36;;;;;;;9.10;5.93;;;18.30;99.90;;;;;;5089412;28;20374;-55
2021/07/07 05:16:02;;;;;;;9.18;6.28;;;18.40;99.90;;;;;;5087350;28;21237;-55
2021/07/07 05:18:28;;;;;;;9.00;5.40;;;18.50;99.90;;;;;;5089292;28;20381;-55
2021/07/07 05:20:53;;;;;;;10.15;5.70;;;18.50;99.90;;;;;;5088114;28;20706;-55
2021/07/07 05:23:19;;;;;;;9.60;5.60;;;18.40;99.90;;;;;;5084094;28;20398;-55
2021/07/07 05:25:45;;;;;;;12.70;5.73;;;18.30;99.90;;;;;;5078126;28;20902;-55
2021/07/07 05:28:12;;;;;;;9.10;5.20;;;18.30;99.90;;;;;;5076526;28;20392;-55
2021/07/07 05:30:38;;;;;;;9.13;5.33;;;18.20;99.90;;;;;;5084009;28;20523;-55
2021/07/07 05:33:06;;;;;;;8.10;5.20;;;18.40;99.90;;;;;;5108683;28;20372;-55
2021/07/07 05:35:31;;;;;;;8.35;4.60;;;18.40;99.90;;;;;;5109576;28;20479;-55
2021/07/07 05:37:57;;;;;;;9.63;5.60;;;18.60;99.90;;;;;;5108389;28;20455;-55
2021/07/07 05:40:23;;;;;;;8.03;4.83;;;18.80;99.90;;;;;;5108990;28;20385;-55
2021/07/07 05:42:52;;;;;;;7.53;4.20;;;18.90;99.90;;;;;;5107181;28;20774;-55
2021/07/07 05:45:21;;;;;;;7.50;4.18;;;19.00;99.90;;;;;;5109396;28;20380;-55
2021/07/07 05:47:47;;;;;;;5.65;2.90;;;19.10;99.90;;;;;;5107091;28;20389;-55
2021/07/07 05:50:14;;;;;;;7.28;3.58;;;19.00;99.90;;;;;;5100708;28;21334;-55
2021/07/07 05:52:40;;;;;;;8.40;3.50;;;18.90;99.90;;;;;;5083109;28;20868;-55
2021/07/07 05:55:06;;;;;;;7.35;3.50;;;18.80;99.90;;;;;;5087500;28;20485;-55
2021/07/07 05:57:38;;;;;;;7.55;3.38;;;18.80;99.90;;;;;;5088204;28;20382;-55
2021/07/07 06:00:14;;;;;;;7.60;2.95;;;18.80;99.90;;;;;;5087646;28;20412;-55
2021/07/07 06:02:41;;;;;;;7.63;2.75;;;18.80;99.90;;;;;;5089024;28;20380;-55
2021/07/07 06:05:09;;;;;;;5.25;2.70;;;18.80;99.90;;;;;;5087694;28;20398;-55
2021/07/07 06:07:35;;;;;;;5.90;2.60;;;18.80;99.90;;;;;;5088101;28;20502;-55
2021/07/07 06:10:04;;;;;;;6.77;2.23;;;18.80;99.90;;;;;;5087734;28;20378;-55
2021/07/07 06:12:29;;;;;;;5.70;2.78;;;18.80;99.90;;;;;;5088247;28;20382;-55
2021/07/07 06:14:55;;;;;;;7.30;2.47;;;18.80;99.90;;;;;;5090805;28;20416;-55
2021/07/07 06:17:21;;;;;;;8.80;3.10;;;18.70;99.90;;;;;;5091639;28;20394;-55
2021/07/07 06:19:46;;;;;;;7.20;3.00;;;18.60;99.90;;;;;;5090787;28;20793;-55
2021/07/07 06:22:12;;;;;;;7.40;2.78;;;18.70;99.90;;;;;;5091197;28;20756;-55
2021/07/07 06:24:38;;;;;;;5.23;2.40;;;18.80;99.90;;;;;;5092010;28;20482;-55
2021/07/07 06:27:04;;;;;;;7.57;2.70;;;19.00;99.90;;;;;;5091092;28;20402;-55
2021/07/07 06:29:29;;;;;;;5.43;2.70;;;18.80;99.90;;;;;;5091595;28;20454;-55
2021/07/07 06:31:55;;;;;;;5.63;2.67;;;18.70;99.90;;;;;;5091359;28;20420;-55
2021/07/07 06:34:21;;;;;;;5.63;2.53;;;20.10;99.90;;;;;;5109268;28;20941;-55
2021/07/07 06:36:46;;;;;;;5.70;2.30;;;18.70;99.90;;;;;;5096845;28;20400;-55
2021/07/07 06:39:12;;;;;;;5.90;1.90;;;18.80;99.90;;;;;;5102796;28;20389;-55
2021/07/07 06:41:37;;;;;;;7.97;2.20;;;18.80;99.90;;;;;;5103910;28;20388;-52
2021/07/07 06:44:03;;;;;;;7.30;2.30;;;18.70;99.90;;;;;;5095920;28;20635;-52
2021/07/07 06:46:30;;;;;;;5.30;2.40;;;18.40;99.90;;;;;;5099463;28;20950;-53
2021/07/07 06:48:56;;;;;;;6.65;1.80;;;18.50;99.90;;;;;;5098074;28;20404;-51
2021/07/07 06:51:22;;;;;;;4.40;1.80;;;18.50;99.90;;;;;;5107931;28;20857;-53
2021/07/07 06:53:47;;;;;;;7.83;1.97;;;18.40;99.90;;;;;;5090829;28;20391;-59
2021/07/07 06:56:13;;;;;;;4.93;2.03;;;18.40;99.90;;;;;;5093263;28;20398;-54
2021/07/07 06:58:39;;;;;;;6.47;2.50;;;18.30;99.90;;;;;;5092757;28;20457;-53
2021/07/07 07:01:04;;;;;;;5.97;2.50;;;18.40;99.90;;;;;;5091189;28;20515;-53
2021/07/07 07:03:31;;;;;;;4.95;2.40;;;18.30;99.90;;;;;;5102024;28;20429;-51
2021/07/07 07:05:57;;;;;;;6.10;2.50;;;18.40;99.90;;;;;;5096411;28;20891;-52
2021/07/07 07:08:23;;;;;;;7.22;2.30;;;18.30;99.90;;;;;;5107909;28;20387;-52
2021/07/07 07:10:48;;;;;;;6.63;2.30;;;18.20;99.90;;;;;;5095070;28;20455;-52
2021/07/07 07:13:14;;;;;;;5.87;2.50;;;18.30;99.90;;;;;;5103301;28;20482;-52
2021/07/07 07:15:41;;;;;;;5.80;2.50;;;18.30;99.90;;;;;;5099612;28;20398;-54
2021/07/07 07:18:07;;;;;;;5.47;2.60;;;18.40;99.90;;;;;;5087982;28;20441;-52
2021/07/07 07:20:33;;;;;;;6.80;2.60;;;18.50;99.90;;;;;;5091921;28;20928;-51
2021/07/07 07:22:59;;;;;;;5.30;2.60;;;18.50;99.90;;;;;;5089760;28;20477;-52
2021/07/07 07:25:25;;;;;;;6.30;2.80;;;18.60;99.90;;;;;;5091210;28;20389;-52
2021/07/07 07:27:53;;;;;;;5.60;2.55;;;18.60;99.90;;;;;;5090106;28;20735;-53
2021/07/07 07:30:19;;;;;;;6.07;2.80;;;18.60;99.90;;;;;;5091576;28;20374;-51
2021/07/07 07:32:46;;;;;;;5.50;2.30;;;18.70;99.90;;;;;;5090399;28;20859;-58
2021/07/07 07:35:14;;;;;;;7.38;2.40;;;18.80;99.90;;;;;;5089899;28;20386;-52
2021/07/07 07:37:46;;;;;;;5.88;2.47;;;18.70;99.90;;;;;;5090401;28;20378;-53
2021/07/07 07:40:13;;;;;;;5.63;2.00;;;18.80;99.90;;;;;;5087762;28;20394;-51
2021/07/07 07:42:43;;;;;;;5.45;2.05;;;19.10;99.90;;;;;;5090293;28;20495;-51
2021/07/07 07:45:11;;;;;;;5.10;2.00;;;19.30;99.90;;;;;;5086914;28;20891;-51
2021/07/07 07:47:37;;;;;;;5.30;1.80;;;19.50;99.90;;;;;;5089968;28;20501;-52
2021/07/07 07:50:04;;;;;;;6.00;1.90;;;19.40;99.90;;;;;;5088058;28;20496;-51
2021/07/07 07:52:30;;;;;;;4.43;1.60;;;19.50;99.90;;;;;;5087519;28;20397;-54
2021/07/07 07:54:55;;;;;;;4.90;2.05;;;19.60;99.90;;;;;;5089127;28;20378;-52
2021/07/07 07:57:22;;;;;;;8.27;1.97;;;19.70;99.90;;;;;;5088610;28;20398;-52
2021/07/07 07:59:48;;;;;;;7.10;2.10;;;19.60;99.90;;;;;;5086176;28;20813;-60
2021/07/07 08:02:15;;;;;;;5.90;1.60;;;18.30;99.90;;;;;;5088472;28;20386;-53
2021/07/07 08:04:40;;;;;;;4.90;1.70;;;20.10;99.90;;;;;;5088425;28;20386;-53
2021/07/07 08:07:06;;;;;;;4.60;1.77;;;20.40;99.90;;;;;;5089047;28;20418;-53
2021/07/07 08:09:32;;;;;;;4.32;1.30;;;20.50;99.90;;;;;;5089138;28;20386;-53
2021/07/07 08:11:58;;;;;;;5.93;1.50;;;20.40;99.90;;;;;;5088541;28;20381;-53
2021/07/07 08:14:23;;;;;;;4.90;1.80;;;20.50;99.90;;;;;;5089570;28;20481;-54
2021/07/07 08:16:50;;;;;;;5.15;1.80;;;20.50;99.90;;;;;;5089546;28;20418;-59
2021/07/07 08:19:16;;;;;;;4.65;1.80;;;21.70;99.90;;;;;;5089452;28;20382;-55
2021/07/07 08:21:41;;;;;;;5.80;1.90;;;20.20;99.90;;;;;;5090068;28;20700;-55
2021/07/07 08:24:07;;;;;;;6.23;1.70;;;20.20;99.90;;;;;;5088305;28;20534;-56
2021/07/07 08:26:33;;;;;;;5.50;1.83;;;20.40;99.90;;;;;;5089357;28;20406;-56
2021/07/07 08:28:58;;;;;;;6.50;1.90;;;20.30;99.90;;;;;;5096251;28;20380;-56
2021/07/07 08:31:27;;;;;;;5.33;1.93;;;20.30;99.90;;;;;;5103387;27;20882;-56
2021/07/07 08:33:56;;;;;;;6.45;1.92;;;20.40;99.90;;;;;;5093146;28;20419;-56
2021/07/07 08:36:25;;;;;;;6.30;2.35;;;20.60;99.90;;;;;;5104482;28;20428;-55
2021/07/07 08:38:51;;;;;;;6.80;2.45;;;20.60;99.90;;;;;;5095851;28;20421;-57
2021/07/07 08:41:17;;;;;;;7.60;2.20;;;20.50;99.90;;;;;;5099554;28;20389;-56
2021/07/07 08:43:45;;;;;;;5.80;1.90;;;20.30;99.90;;;;;;5105601;28;20729;-55
2021/07/07 08:46:11;;;;;;;5.40;2.00;;;20.20;99.90;;;;;;5092227;28;20414;-56
2021/07/07 08:48:37;;;;;;;6.70;2.00;;;20.10;99.90;;;;;;5105382;28;20451;-56
2021/07/07 08:51:04;;;;;;;6.50;1.77;;;20.10;99.90;;;;;;5096458;28;20408;-56
2021/07/07 08:53:30;;;;;;;6.72;1.60;;;20.10;99.90;;;;;;5088399;28;20747;-56
2021/07/07 08:55:57;;;;;;;6.70;1.70;;;20.00;99.90;;;;;;5090797;28;20416;-56
2021/07/07 08:58:23;;;;;;;4.93;1.60;;;20.10;99.90;;;;;;5093218;28;20377;-56
2021/07/07 09:00:50;;;;;;;4.97;1.95;;;20.00;99.90;;;;;;5090785;28;20481;-56
2021/07/07 09:03:18;;;;;;;5.10;2.08;;;19.40;99.90;;;;;;5090690;28;20390;-56
2021/07/07 09:06:03;;;;;;;6.35;2.20;;;19.80;99.90;;;;;;5091795;28;20460;-55
2021/07/07 09:08:31;;;;;;;7.68;2.00;;;19.80;99.90;;;;;;5069260;28;20387;-56
2021/07/07 09:11:15;;;;;;;5.80;2.30;;;20.10;99.90;;;;;;5068336;28;20411;-56
2021/07/07 09:13:41;;;;;;;5.30;2.03;;;20.50;99.90;;;;;;5067846;28;20392;-56
2021/07/07 09:16:10;;;;;;;6.40;1.90;;;20.80;99.90;;;;;;5068264;28;20450;-56
2021/07/07 09:18:36;;;;;;;4.90;2.10;;;20.90;99.90;;;;;;5087275;28;20768;-57
2021/07/07 09:21:03;;;;;;;6.85;2.30;;;21.20;99.90;;;;;;5088419;28;20398;-56
2021/07/07 09:23:30;;;;;;;8.90;2.80;;;21.30;99.90;;;;;;5085923;28;20419;-56
2021/07/07 09:26:00;;;;;;;6.80;2.40;;;21.10;99.90;;;;;;5088242;28;20477;-56
2021/07/07 09:28:35;;;;;;;6.18;2.40;;;21.10;99.90;;;;;;5088761;28;20397;-56
2021/07/07 09:31:05;;;;;;;5.68;2.30;;;21.00;99.90;;;;;;5082921;28;20387;-56
2021/07/07 09:33:43;;;;;;;6.45;2.40;;;20.90;99.90;;;;;;5083415;28;20437;-56
2021/07/07 09:36:20;;;;;;;6.85;2.50;;;20.80;99.90;;;;;;5074883;28;20531;-56
2021/07/07 09:38:47;;;;;;;8.82;2.30;;;20.80;99.90;;;;;;5080178;28;20443;-56
2021/07/07 09:41:13;;;;;;;6.85;1.90;;;21.00;99.90;;;;;;5079258;28;20383;-56
2021/07/07 09:43:53;;;;;;;7.20;1.90;;;21.40;99.90;;;;;;5077734;28;20395;-56
2021/07/07 09:46:21;;;;;;;6.20;2.40;;;21.60;99.90;;;;;;5068783;28;20446;-55
2021/07/07 09:48:48;;;;;;;6.25;2.17;;;21.60;99.90;;;;;;5069862;28;20432;-56
2021/07/07 09:51:14;;;;;;;6.70;1.90;;;21.40;99.90;;;;;;5077423;28;20402;-56
2021/07/07 09:53:39;;;;;;;7.25;2.20;;;21.20;99.90;;;;;;5091134;28;20471;-56
2021/07/07 09:56:05;;;;;;;7.80;2.50;;;21.10;99.90;;;;;;5090992;28;20491;-56
2021/07/07 09:58:31;;;;;;;9.17;2.87;;;21.00;99.90;;;;;;5092183;28;20386;-56
2021/07/07 10:00:57;;;;;;;6.28;2.22;;;20.80;99.90;;;;;;5091161;28;20409;-56
2021/07/07 10:03:23;;;;;;;6.30;1.70;;;20.80;99.90;;;;;;5092551;28;20461;-56
2021/07/07 10:05:51;;;;;;;6.43;2.10;;;20.70;99.90;;;;;;5087286;28;20435;-56
2021/07/07 10:08:19;;;;;;;6.03;2.20;;;20.90;99.90;;;;;;5090282;28;20390;-56
2021/07/07 10:10:45;;;;;;;6.38;2.40;;;21.00;99.90;;;;;;5090669;28;20405;-56
2021/07/07 10:13:12;;;;;;;7.15;2.45;;;21.20;99.90;;;;;;5088407;28;20458;-56
2021/07/07 10:15:38;;;;;;;5.93;2.10;;;21.50;99.90;;;;;;5085468;28;20402;-56
2021/07/07 10:18:06;;;;;;;9.07;2.60;;;21.50;99.90;;;;;;5084801;28;20385;-56
2021/07/07 10:20:32;;;;;;;5.20;2.10;;;21.40;99.90;;;;;;5089651;28;20431;-56
2021/07/07 10:23:00;;;;;;;8.70;2.70;;;21.60;99.90;;;;;;5077479;28;20394;-56
2021/07/07 10:25:28;;;;;;;6.28;2.40;;;22.10;99.90;;;;;;5082613;28;20902;-56
2021/07/07 10:27:56;;;;;;;6.93;2.40;;;22.30;99.90;;;;;;5086077;28;20426;-56
2021/07/07 10:30:56;;;;;;;7.05;2.33;;;22.20;99.90;;;;;;5085198;28;20463;-56
2021/07/07 10:33:24;;;;;;;8.55;2.20;;;22.50;99.90;;;;;;5077534;28;20465;-56
2021/07/07 10:36:01;;;;;;;7.03;2.17;;;22.80;99.90;;;;;;5081811;28;20431;-56
2021/07/07 10:38:26;;;;;;;6.50;2.20;;;22.80;99.90;;;;;;5078388;28;20836;-56
2021/07/07 10:40:54;;;;;;;5.80;1.90;;;22.90;99.90;;;;;;5082726;28;20411;-60
2021/07/07 10:43:47;;;;;;;6.70;2.80;;;22.70;99.90;;;;;;5080028;28;20473;-53
2021/07/07 10:46:49;;;;;;;6.05;2.70;;;22.50;99.90;;;;;;5088652;28;20468;-52
2021/07/07 10:49:26;;;;;;;5.75;2.17;;;22.70;99.90;;;;;;5068357;28;20389;-57
2021/07/07 10:51:54;;;;;;;6.03;2.60;;;22.80;99.90;;;;;;5084571;28;20396;-59
2021/07/07 10:54:30;;;;;;;7.28;2.47;;;22.40;99.90;;;;;;5084561;28;20392;-55
2021/07/07 10:56:57;;;;;;;9.45;2.63;;;22.60;99.90;;;;;;5086265;28;20389;-60
2021/07/07 10:59:33;;;;;;;8.52;2.60;;;22.60;99.90;;;;;;5088391;28;20447;-53
2021/07/07 11:02:09;;;;;;;7.10;2.90;;;22.80;99.90;;;;;;5086766;28;20398;-54
2021/07/07 11:04:37;;;;;;;6.15;2.05;;;23.20;99.90;;;;;;5083872;28;20377;-56
2021/07/07 11:07:21;;;;;;;6.57;2.45;;;23.20;99.90;;;;;;5086857;28;20414;-55
2021/07/07 11:09:52;;;;;;;6.80;3.00;;;23.50;99.90;;;;;;5083751;28;20395;-54
2021/07/07 11:12:26;;;;;;;5.93;2.47;;;23.40;99.90;;;;;;5082875;28;20385;-54
2021/07/07 11:15:03;;;;;;;10.10;2.85;;;23.70;99.90;;;;;;5082105;28;20855;-57
2021/07/07 11:17:40;;;;;;;6.60;2.40;;;24.00;99.90;;;;;;5081883;28;20544;-54
2021/07/07 11:20:09;;;;;;;6.60;2.60;;;24.00;99.90;;;;;;5079179;28;20469;-53
2021/07/07 11:22:36;;;;;;;7.50;2.70;;;24.30;99.90;;;;;;5076075;28;20403;-54
2021/07/07 11:25:06;;;;;;;6.40;2.75;;;23.70;99.90;;;;;;5084531;28;20425;-54
2021/07/07 11:27:33;;;;;;;7.20;2.08;;;23.50;99.90;;;;;;5088091;28;20455;-55
2021/07/07 11:30:00;;;;;;;5.60;2.17;;;23.50;99.90;;;;;;5086735;28;20378;-56
2021/07/07 11:32:29;;;;;;;6.15;2.40;;;23.90;99.90;;;;;;5088467;28;20386;-54
2021/07/07 11:35:00;;;;;;;7.13;2.20;;;24.00;99.90;;;;;;5084370;28;20378;-61
2021/07/07 11:37:29;;;;;;;8.27;2.80;;;24.10;99.90;;;;;;5089907;28;20400;-54
2021/07/07 11:40:06;;;;;;;8.77;2.40;;;23.70;99.90;;;;;;5085508;28;20418;-57
2021/07/07 11:42:32;;;;;;;7.20;2.30;;;23.70;99.90;;;;;;5085573;28;20390;-53
2021/07/07 11:44:58;;;;;;;7.40;2.80;;;24.00;99.90;;;;;;5085496;28;20442;-62
2021/07/07 11:47:34;;;;;;;9.80;3.00;;;24.20;99.90;;;;;;5090627;28;20412;-53
2021/07/07 11:50:07;;;;;;;8.20;3.03;;;24.30;99.90;;;;;;5088025;28;20389;-56
2021/07/07 11:52:33;;;;;;;6.40;2.30;;;24.40;99.90;;;;;;5083144;28;20507;-58
2021/07/07 11:54:59;;;;;;;9.25;2.90;;;24.50;99.90;;;;;;5079564;28;20383;-58
2021/07/07 11:57:26;;;;;;;7.00;2.65;;;24.70;99.90;;;;;;5090320;28;20378;-58
2021/07/07 11:59:53;;;;;;;7.78;3.20;;;24.90;99.90;;;;;;5080540;28;20938;-57
2021/07/07 12:02:22;;;;;;;9.38;3.25;;;24.90;99.90;;;;;;5088982;28;20446;-58
2021/07/07 12:04:48;;;;;;;8.33;2.93;;;25.10;99.90;;;;;;5088586;28;20417;-58
2021/07/07 12:07:14;;;;;;;6.77;2.53;;;24.60;99.90;;;;;;5089559;28;20448;-57
2021/07/07 12:09:39;;;;;;;7.70;2.83;;;24.60;99.90;;;;;;5089697;28;20393;-57
2021/07/07 12:12:07;;;;;;;7.25;2.70;;;25.00;99.90;;;;;;5088432;28;21164;-56
2021/07/07 12:14:36;;;;;;;6.70;2.30;;;25.40;99.90;;;;;;5089561;28;20875;-55
2021/07/07 12:17:02;;;;;;;10.98;3.85;;;25.40;99.90;;;;;;5088856;28;20760;-56
2021/07/07 12:19:29;;;;;;;7.85;2.67;;;25.20;99.90;;;;;;5089167;28;20394;-55
2021/07/07 12:21:57;;;;;;;7.53;2.10;;;25.00;99.90;;;;;;5076339;28;20390;-56
2021/07/07 12:24:26;;;;;;;6.72;2.80;;;25.00;99.90;;;;;;5085281;28;20405;-56
2021/07/07 12:26:55;;;;;;;9.65;3.13;;;25.00;99.90;;;;;;5089765;28;20414;-55
2021/07/07 12:29:24;;;;;;;6.93;2.50;;;24.80;99.90;;;;;;5086983;28;20386;-55
2021/07/07 12:31:53;;;;;;;7.55;2.40;;;24.50;99.90;;;;;;5091164;28;20385;-57
2021/07/07 12:34:26;;;;;;;5.93;2.35;;;24.50;99.90;;;;;;5088806;28;20457;-57
2021/07/07 12:36:53;;;;;;;9.10;2.63;;;24.80;99.90;;;;;;5072779;28;20529;-55
2021/07/07 12:39:23;;;;;;;7.50;2.30;;;24.90;99.90;;;;;;5099284;28;20392;-55
2021/07/07 12:41:58;;;;;;;7.68;2.58;;;24.80;99.90;;;;;;5075555;28;20384;-57
2021/07/07 12:44:33;;;;;;;7.07;2.60;;;24.80;99.90;;;;;;5072231;28;20903;-57
2021/07/07 12:47:05;;;;;;;6.80;2.65;;;24.90;99.90;;;;;;5079454;28;20414;-57